Time,TemperatureF,DewpointF,PressureIn,WindDirection,WindDirectionDegrees,WindSpeedMPH,WindSpeedGustMPH,Humidity,HourlyPrecipIn,Conditions,Clouds,dailyrainin,SolarRadiationWatts/m^2,SoftwareType,DateUTC
2013-05-14 00:00:00,42.2,33.0,29.61,ESE,111,0.0,0.0,70,0.00,,,0.00,0,weatherlink.com 1.10,2013-05-14 04:00:00,
2013-05-14 00:15:00,41.8,33.0,29.61,ESE,111,0.0,0.0,72,0.00,,,0.00,0,weatherlink.com 1.10,2013-05-14 04:15:00,
2013-05-14 00:30:00,41.5,34.0,29.61,ESE,111,0.0,0.0,75,0.00,,,0.00,0,weatherlink.com 1.10,2013-05-14 04:30:00,
2013-05-14 00:45:00,41.3,34.0,29.61,ESE,111,0.0,0.0,75,0.00,,,0.00,0,weatherlink.com 1.10,2013-05-14 04:45:00,
2013-05-14 01:00:00,41.4,34.0,29.61,ESE,111,0.0,0.0,75,0.00,,,0.00,0,weatherlink.com 1.10,2013-05-14 05:00:00,
2013-05-14 01:15:00,41.0,34.0,29.60,ESE,111,0.0,1.0,75,0.00,,,0.00,0,weatherlink.com 1.10,2013-05-14 05:15:00,
2013-05-14 01:30:00,40.5,33.0,29.61,ESE,111,0.0,0.0,74,0.00,,,0.00,0,weatherlink.com 1.10,2013-05-14 05:30:00,
2013-05-14 01:45:00,40.1,33.0,29.60,ESE,111,0.0,0.0,75,0.00,,,0.00,0,weatherlink.com 1.10,2013-05-14 05:45:00,
2013-05-14 02:00:00,40.5,33.0,29.60,ESE,111,0.0,1.0,74,0.00,,,0.00,0,weatherlink.com 1.10,2013-05-14 06:00:00,
2013-05-14 02:15:00,40.2,33.0,29.60,ESE,111,0.0,1.0,74,0.00,,,0.00,0,weatherlink.com 1.10,2013-05-14 06:15:00,
2013-05-14 02:30:00,39.8,32.0,29.60,ESE,111,0.0,1.0,75,0.00,,,0.00,0,weatherlink.com 1.10,2013-05-14 06:30:00,
2013-05-14 02:45:00,39.8,33.0,29.60,ESE,111,0.0,1.0,76,0.00,,,0.00,0,weatherlink.com 1.10,2013-05-14 06:45:00,
2013-05-14 03:00:00,39.9,33.0,29.60,ESE,111,0.0,2.0,75,0.00,,,0.00,0,weatherlink.com 1.10,2013-05-14 07:00:00,
2013-05-14 03:15:00,39.9,33.0,29.61,ESE,111,0.0,2.0,76,0.00,,,0.00,0,weatherlink.com 1.10,2013-05-14 07:15:00,
2013-05-14 03:30:00,39.8,33.0,29.61,ESE,110,0.0,2.0,76,0.00,,,0.00,0,weatherlink.com 1.10,2013-05-14 07:30:00,
2013-05-14 03:45:00,39.8,32.0,29.61,ESE,110,0.0,1.0,75,0.00,,,0.00,0,weatherlink.com 1.10,2013-05-14 07:45:00,
2013-05-14 04:00:00,39.7,33.0,29.60,ESE,110,0.0,1.0,77,0.00,,,0.00,0,weatherlink.com 1.10,2013-05-14 08:00:00,
2013-05-14 04:15:00,39.5,33.0,29.60,ESE,110,0.0,1.0,77,0.00,,,0.00,0,weatherlink.com 1.10,2013-05-14 08:15:00,
2013-05-14 04:30:00,39.3,33.0,29.60,ESE,110,0.0,1.0,78,0.00,,,0.00,0,weatherlink.com 1.10,2013-05-14 08:30:00,
2013-05-14 04:45:00,39.1,33.0,29.60,ESE,110,0.0,1.0,78,0.00,,,0.00,0,weatherlink.com 1.10,2013-05-14 08:45:00,
2013-05-14 05:00:00,39.3,33.0,29.60,ESE,110,0.0,2.0,78,0.00,,,0.00,0,weatherlink.com 1.10,2013-05-14 09:00:00,
2013-05-14 05:15:00,39.0,33.0,29.60,ESE,106,0.0,1.0,78,0.00,,,0.00,0,weatherlink.com 1.10,2013-05-14 09:15:00,
2013-05-14 05:30:00,39.0,33.0,29.60,ESE,107,0.0,0.0,78,0.00,,,0.00,0,weatherlink.com 1.10,2013-05-14 09:30:00,
2013-05-14 05:45:00,38.9,32.0,29.60,ESE,107,2.0,3.0,77,0.00,,,0.00,5,weatherlink.com 1.10,2013-05-14 09:45:00,
2013-05-14 06:00:00,38.9,33.0,29.60,ESE,106,0.0,2.0,78,0.00,,,0.00,25,weatherlink.com 1.10,2013-05-14 10:00:00,
2013-05-14 06:15:00,39.3,33.0,29.61,ESE,106,0.0,2.0,78,0.00,,,0.00,42,weatherlink.com 1.10,2013-05-14 10:15:00,
2013-05-14 06:30:00,39.8,33.0,29.61,ESE,106,0.0,2.0,78,0.00,,,0.00,56,weatherlink.com 1.10,2013-05-14 10:30:00,
2013-05-14 06:45:00,40.8,34.0,29.61,ESE,107,0.0,2.0,76,0.00,,,0.00,135,weatherlink.com 1.10,2013-05-14 10:45:00,
2013-05-14 07:00:00,42.1,34.0,29.62,ESE,106,0.0,0.0,74,0.00,,,0.00,192,weatherlink.com 1.10,2013-05-14 11:00:00,
2013-05-14 07:16:00,43.1,35.0,29.62,ESE,106,0.0,0.0,72,0.00,,,0.00,246,weatherlink.com 1.10,2013-05-14 11:16:00,
2013-05-14 07:31:00,44.1,35.0,29.62,ESE,105,0.0,2.0,70,0.00,,,0.00,292,weatherlink.com 1.10,2013-05-14 11:31:00,
2013-05-14 07:46:00,45.8,35.0,29.62,ESE,105,0.0,1.0,67,0.00,,,0.00,343,weatherlink.com 1.10,2013-05-14 11:46:00,
2013-05-14 08:01:00,47.2,36.0,29.62,NW,305,0.0,3.0,65,0.00,,,0.00,396,weatherlink.com 1.10,2013-05-14 12:01:00,
2013-05-14 08:16:00,48.5,35.0,29.62,ENE,58,1.0,5.0,59,0.00,,,0.00,441,weatherlink.com 1.10,2013-05-14 12:16:00,
2013-05-14 08:31:00,49.4,35.0,29.63,NNW,346,0.0,3.0,57,0.00,,,0.00,492,weatherlink.com 1.10,2013-05-14 12:31:00,
2013-05-14 08:46:00,50.3,35.0,29.62,North,360,0.0,3.0,57,0.00,,,0.00,533,weatherlink.com 1.10,2013-05-14 12:46:00,
2013-05-14 09:01:00,51.7,37.0,29.62,East,89,0.0,4.0,58,0.00,,,0.00,582,weatherlink.com 1.10,2013-05-14 13:01:00,
2013-05-14 09:16:00,52.2,35.0,29.62,NNW,345,0.0,3.0,53,0.00,,,0.00,631,weatherlink.com 1.10,2013-05-14 13:16:00,
2013-05-14 09:31:00,51.6,34.0,29.62,NW,320,0.0,4.0,51,0.00,,,0.00,668,weatherlink.com 1.10,2013-05-14 13:31:00,
2013-05-14 09:46:00,53.8,36.0,29.62,ENE,66,2.0,3.0,52,0.00,,,0.00,712,weatherlink.com 1.10,2013-05-14 13:46:00,
2013-05-14 10:01:00,53.9,33.0,29.61,SE,127,1.0,3.0,46,0.00,,,0.00,754,weatherlink.com 1.10,2013-05-14 14:01:00,
2013-05-14 10:16:00,54.7,33.0,29.61,West,269,1.0,3.0,44,0.00,,,0.00,793,weatherlink.com 1.10,2013-05-14 14:16:00,
2013-05-14 10:31:00,55.6,35.0,29.61,WNW,300,2.0,3.0,46,0.00,,,0.00,833,weatherlink.com 1.10,2013-05-14 14:31:00,
2013-05-14 10:46:00,55.8,33.0,29.61,NE,55,2.0,5.0,43,0.00,,,0.00,918,weatherlink.com 1.10,2013-05-14 14:46:00,
2013-05-14 11:01:00,55.3,32.0,29.61,NW,316,0.0,3.0,42,0.00,,,0.00,696,weatherlink.com 1.10,2013-05-14 15:01:00,
2013-05-14 11:16:00,58.1,32.0,29.61,NE,37,0.0,5.0,38,0.00,,,0.00,940,weatherlink.com 1.10,2013-05-14 15:16:00,
2013-05-14 11:32:00,54.9,29.0,29.61,NW,317,0.0,5.0,37,0.00,,,0.00,967,weatherlink.com 1.10,2013-05-14 15:32:00,
2013-05-14 11:47:00,55.3,32.0,29.60,North,5,1.0,2.0,42,0.00,,,0.00,130,weatherlink.com 1.10,2013-05-14 15:47:00,
2013-05-14 12:02:00,56.7,32.0,29.60,WNW,291,1.0,4.0,40,0.00,,,0.00,1002,weatherlink.com 1.10,2013-05-14 16:02:00,
2013-05-14 12:17:00,57.8,30.0,29.60,NW,314,0.0,4.0,35,0.00,,,0.00,984,weatherlink.com 1.10,2013-05-14 16:17:00,
2013-05-14 12:32:00,57.2,34.0,29.60,ESE,122,0.0,5.0,42,0.00,,,0.00,998,weatherlink.com 1.10,2013-05-14 16:32:00,
2013-05-14 12:47:00,58.6,29.0,29.60,NW,306,1.0,5.0,33,0.00,,,0.00,932,weatherlink.com 1.10,2013-05-14 16:47:00,
2013-05-14 13:02:00,57.8,31.0,29.59,SSW,193,0.0,3.0,37,0.00,,,0.00,926,weatherlink.com 1.10,2013-05-14 17:02:00,
2013-05-14 13:17:00,58.8,32.0,29.59,East,96,1.0,7.0,36,0.00,,,0.00,557,weatherlink.com 1.10,2013-05-14 17:17:00,
2013-05-14 13:32:00,57.8,31.0,29.59,SE,128,2.0,7.0,36,0.00,,,0.00,253,weatherlink.com 1.10,2013-05-14 17:32:00,
2013-05-14 13:47:00,58.6,34.0,29.59,NNW,341,0.0,4.0,39,0.00,,,0.00,220,weatherlink.com 1.10,2013-05-14 17:47:00,
2013-05-14 14:02:00,57.6,30.0,29.58,NW,316,4.0,6.0,35,0.00,,,0.00,260,weatherlink.com 1.10,2013-05-14 18:02:00,
2013-05-14 14:17:00,58.0,30.0,29.58,South,172,0.0,5.0,34,0.00,,,0.00,308,weatherlink.com 1.10,2013-05-14 18:17:00,
2013-05-14 14:32:00,57.9,30.0,29.58,NW,307,1.0,5.0,34,0.00,,,0.00,183,weatherlink.com 1.10,2013-05-14 18:32:00,
2013-05-14 14:47:00,58.1,32.0,29.57,North,5,2.0,8.0,37,0.00,,,0.00,197,weatherlink.com 1.10,2013-05-14 18:47:00,
2013-05-14 15:02:00,57.8,29.0,29.57,North,355,0.0,3.0,33,0.00,,,0.00,185,weatherlink.com 1.10,2013-05-14 19:02:00,
2013-05-14 15:17:00,58.7,31.0,29.57,NNE,31,0.0,3.0,35,0.00,,,0.00,181,weatherlink.com 1.10,2013-05-14 19:17:00,
2013-05-14 15:32:00,57.3,29.0,29.56,NW,309,1.0,3.0,34,0.00,,,0.00,149,weatherlink.com 1.10,2013-05-14 19:32:00,
2013-05-14 15:47:00,57.5,28.0,29.56,WNW,294,1.0,2.0,33,0.00,,,0.00,195,weatherlink.com 1.10,2013-05-14 19:47:00,
2013-05-14 16:02:00,57.8,29.0,29.56,West,269,1.0,3.0,34,0.00,,,0.00,214,weatherlink.com 1.10,2013-05-14 20:02:00,
2013-05-14 16:17:00,58.0,27.0,29.55,North,360,1.0,4.0,31,0.00,,,0.00,163,weatherlink.com 1.10,2013-05-14 20:17:00,
2013-05-14 16:32:00,58.4,26.0,29.55,NNW,342,0.0,2.0,29,0.00,,,0.00,195,weatherlink.com 1.10,2013-05-14 20:32:00,
2013-05-14 16:47:00,58.1,27.0,29.55,ESE,105,2.0,3.0,31,0.00,,,0.00,160,weatherlink.com 1.10,2013-05-14 20:47:00,
2013-05-14 17:02:00,58.0,29.0,29.54,NNW,346,0.0,2.0,33,0.00,,,0.00,132,weatherlink.com 1.10,2013-05-14 21:02:00,
2013-05-14 17:17:00,57.8,26.0,29.54,South,171,0.0,3.0,30,0.00,,,0.00,125,weatherlink.com 1.10,2013-05-14 21:17:00,
2013-05-14 17:32:00,57.6,27.0,29.54,ENE,76,0.0,3.0,31,0.00,,,0.00,167,weatherlink.com 1.10,2013-05-14 21:32:00,
2013-05-14 17:47:00,57.7,28.0,29.54,NNW,335,0.0,3.0,32,0.00,,,0.00,47,weatherlink.com 1.10,2013-05-14 21:47:00,
2013-05-14 18:02:00,57.2,27.0,29.54,NNW,348,0.0,3.0,31,0.00,,,0.00,77,weatherlink.com 1.10,2013-05-14 22:02:00,
2013-05-14 18:17:00,56.6,30.0,29.53,WNW,288,0.0,1.0,37,0.00,,,0.00,40,weatherlink.com 1.10,2013-05-14 22:17:00,
2013-05-14 18:32:00,55.4,28.0,29.54,NE,48,0.0,2.0,35,0.00,,,0.00,26,weatherlink.com 1.10,2013-05-14 22:32:00,
2013-05-14 18:47:00,55.0,27.0,29.54,NE,48,0.0,0.0,34,0.00,,,0.00,21,weatherlink.com 1.10,2013-05-14 22:47:00,
2013-05-14 19:02:00,54.5,26.0,29.54,NE,48,0.0,1.0,34,0.00,,,0.00,14,weatherlink.com 1.10,2013-05-14 23:02:00,
2013-05-14 19:17:00,53.9,26.0,29.54,NE,48,0.0,1.0,34,0.00,,,0.00,14,weatherlink.com 1.10,2013-05-14 23:17:00,
2013-05-14 19:32:00,53.7,27.0,29.54,NE,48,0.0,0.0,36,0.00,,,0.00,12,weatherlink.com 1.10,2013-05-14 23:32:00,
2013-05-14 19:47:00,52.7,28.0,29.54,NE,48,0.0,0.0,38,0.00,,,0.00,7,weatherlink.com 1.10,2013-05-14 23:47:00,
2013-05-14 20:02:00,51.7,28.0,29.55,NE,48,0.0,0.0,41,0.00,,,0.00,0,weatherlink.com 1.10,2013-05-15 00:02:00,
2013-05-14 20:17:00,51.4,29.0,29.55,NE,48,0.0,0.0,42,0.00,,,0.00,0,weatherlink.com 1.10,2013-05-15 00:17:00,
2013-05-14 20:32:00,51.1,26.0,29.55,NE,48,0.0,0.0,38,0.00,,,0.00,0,weatherlink.com 1.10,2013-05-15 00:32:00,
2013-05-14 20:47:00,50.6,27.0,29.55,NE,48,0.0,0.0,41,0.00,,,0.00,0,weatherlink.com 1.10,2013-05-15 00:47:00,
2013-05-14 21:02:00,51.1,26.0,29.55,NE,48,0.0,0.0,38,0.00,,,0.00,0,weatherlink.com 1.10,2013-05-15 01:02:00,
2013-05-14 21:17:00,50.8,27.0,29.56,NE,47,0.0,0.0,40,0.00,,,0.00,0,weatherlink.com 1.10,2013-05-15 01:17:00,
2013-05-14 21:32:00,50.7,29.0,29.57,NE,48,0.0,0.0,43,0.00,,,0.00,0,weatherlink.com 1.10,2013-05-15 01:32:00,
2013-05-14 21:47:00,50.9,27.0,29.57,NE,48,0.0,0.0,39,0.00,,,0.00,0,weatherlink.com 1.10,2013-05-15 01:47:00,
2013-05-14 22:02:00,50.8,28.0,29.57,NE,48,0.0,0.0,41,0.00,,,0.00,0,weatherlink.com 1.10,2013-05-15 02:02:00,
2013-05-14 22:17:00,47.4,33.0,29.57,NE,48,0.0,2.0,58,0.00,,,0.00,0,weatherlink.com 1.10,2013-05-15 02:17:00,
2013-05-14 22:32:00,47.4,33.0,29.57,NE,47,0.0,0.0,57,0.00,,,0.00,0,weatherlink.com 1.10,2013-05-15 02:32:00,
2013-05-14 22:47:00,47.4,36.0,29.58,NE,48,0.0,0.0,64,0.00,,,0.00,0,weatherlink.com 1.10,2013-05-15 02:47:00,
2013-05-14 23:02:00,47.0,37.0,29.58,NE,47,0.0,0.0,68,0.00,,,0.00,0,weatherlink.com 1.10,2013-05-15 03:02:00,
2013-05-14 23:18:00,46.8,38.0,29.58,NE,48,0.0,0.0,71,0.00,,,0.00,0,weatherlink.com 1.10,2013-05-15 03:18:00,
2013-05-14 23:33:00,46.4,38.0,29.58,NE,48,0.0,0.0,73,0.00,,,0.00,0,weatherlink.com 1.10,2013-05-15 03:33:00,
2013-05-14 23:48:00,46.2,39.0,29.58,NE,48,0.0,0.0,76,0.00,,,0.00,0,weatherlink.com 1.10,2013-05-15 03:48:00,